»·PEaware :: UAL314 KLAX-KDEN

UAL314 :: KLAX-KDEN

FLIGHT INFORMATION

Flight Status: Arrived
Operator:
United Airlines
More flights by this operator :: More flights under this callsign
Pilot: Jose A. (18565)
Aircraft: BOEING 777-200
(B772)
More flights by this aircraft type
Origin: KLAX Los Angeles Intl
United States
Destination: KDEN Denver Intl
United States
More flights between these airports :: More routes between these airports
Route: ORCKA3 LAS J146 DVC WOLLF TELLR2
File this flight plan on PilotEdge
Remarks:
Altitude:
(Current/Filed)
39,000ft
Speed:
(Current/Filed)
510kts
Departed: 25-Sep-19 11:05 AM
Arrived: 25-Sep-19 12:58 PM
Distance/Time
Traveled:
747nm/1:53
Distance/Time
To Go:
Arrived

Flight Plot

Page will automatically refresh every two minutes.

Flight plan parsing failed; only flown route is shown


Map Options




Map Legend


Flown Route
Filed Route
Departure Airport
Arrival Airport
Navaid (VOR, NDB)
Fix

Horizontal Profiles

Position Reports

Time Latitude Longitude Heading Altitude Ground
Speed
25-Sep-19 10:23 33.941011 -118.399057 306 140ft 0kts
25-Sep-19 10:24 33.941011 -118.399057 306 140ft 0kts
25-Sep-19 10:25 33.941011 -118.399057 306 140ft 0kts
25-Sep-19 10:26 33.941011 -118.399057 306 140ft 0kts
25-Sep-19 10:27 33.941011 -118.399057 306 140ft 0kts
25-Sep-19 10:28 33.941011 -118.399057 306 140ft 0kts
25-Sep-19 10:29 33.941011 -118.399057 306 140ft 0kts
25-Sep-19 10:30 33.941011 -118.399057 306 140ft 0kts
25-Sep-19 10:31 33.941011 -118.399057 306 140ft 0kts
25-Sep-19 10:32 33.941011 -118.399057 306 140ft 0kts
25-Sep-19 10:33 33.941011 -118.399057 306 140ft 0kts
25-Sep-19 10:34 33.941011 -118.399057 306 140ft 0kts
25-Sep-19 10:35 33.941011 -118.399057 306 140ft 0kts
25-Sep-19 10:36 33.941011 -118.399057 306 140ft 0kts
25-Sep-19 10:37 33.941011 -118.399057 306 140ft 0kts
25-Sep-19 10:38 33.941011 -118.399057 306 140ft 0kts
25-Sep-19 10:39 33.941011 -118.399057 306 140ft 0kts
25-Sep-19 10:40 33.941011 -118.399057 306 140ft 0kts
25-Sep-19 10:41 33.941011 -118.399057 306 140ft 0kts
25-Sep-19 10:42 33.941011 -118.399057 306 140ft 0kts
25-Sep-19 10:43 33.941011 -118.399057 306 140ft 0kts
25-Sep-19 10:44 33.941011 -118.399057 306 140ft 0kts
25-Sep-19 10:45 33.941011 -118.399057 306 140ft 0kts
25-Sep-19 10:46 33.941011 -118.399057 306 140ft 0kts
25-Sep-19 10:47 33.941011 -118.399057 306 140ft 0kts
25-Sep-19 10:48 33.940982 -118.399009 306 140ft 2kts
25-Sep-19 10:49 33.940708 -118.398522 255 140ft 2kts
25-Sep-19 10:50 33.941141 -118.398319 182 140ft 2kts
25-Sep-19 10:51 33.941293 -118.398311 182 140ft 0kts
25-Sep-19 10:52 33.941293 -118.398311 182 140ft 0kts
25-Sep-19 10:53 33.941293 -118.398311 182 140ft 0kts
25-Sep-19 10:54 33.941293 -118.398311 182 140ft 0kts
25-Sep-19 10:55 33.941005 -118.398329 183 140ft 0kts
25-Sep-19 10:56 33.939446 -118.398159 156 140ft 9kts
25-Sep-19 10:57 33.939432 -118.393697 82 140ft 15kts
25-Sep-19 10:58 33.939893 -118.389060 82 140ft 12kts
25-Sep-19 10:59 33.940266 -118.385461 83 140ft 9kts
25-Sep-19 11:00 33.940625 -118.382059 83 140ft 11kts
25-Sep-19 11:01 33.940698 -118.381079 94 140ft 0kts
25-Sep-19 11:02 33.940698 -118.381077 94 140ft 0kts
25-Sep-19 11:03 33.940486 -118.380492 135 140ft 9kts
25-Sep-19 11:04 33.939056 -118.387300 262 140ft 135kts
25-Sep-19 11:05 33.931889 -118.456852 257 3201ft 228kts
25-Sep-19 11:06 33.909434 -118.531413 246 5024ft 238kts
25-Sep-19 11:07 33.858683 -118.537705 125 7400ft 232kts
25-Sep-19 11:08 33.879516 -118.474788 32 11431ft 238kts
25-Sep-19 11:09 33.939903 -118.419299 48 14246ft 306kts
25-Sep-19 11:10 33.995794 -118.321725 54 16897ft 378kts
25-Sep-19 11:11 34.055966 -118.215998 53 20915ft 395kts
25-Sep-19 11:12 34.119604 -118.103273 53 24039ft 416kts
25-Sep-19 11:13 34.186531 -117.984789 53 27188ft 437kts
25-Sep-19 11:14 34.256530 -117.860227 54 30047ft 460kts
25-Sep-19 11:15 34.328684 -117.730914 54 33039ft 462kts
25-Sep-19 11:16 34.402231 -117.604497 52 35702ft 460kts
25-Sep-19 11:17 34.477444 -117.478537 52 37824ft 460kts
25-Sep-19 11:18 34.552066 -117.352556 52 39026ft 461kts
25-Sep-19 11:19 34.627198 -117.226483 53 39021ft 459kts
25-Sep-19 11:20 34.701418 -117.100695 53 39043ft 459kts
25-Sep-19 11:21 34.776083 -116.974206 53 39022ft 459kts
25-Sep-19 11:22 34.849795 -116.847976 53 38995ft 458kts
25-Sep-19 11:23 34.924079 -116.721579 50 38991ft 458kts
25-Sep-19 11:24 35.010035 -116.607374 46 38994ft 457kts
25-Sep-19 11:25 35.096887 -116.493806 47 38999ft 457kts
25-Sep-19 11:26 35.183334 -116.379597 46 39001ft 458kts
25-Sep-19 11:27 35.269706 -116.265210 47 39003ft 458kts
25-Sep-19 11:28 35.355940 -116.150250 47 39003ft 458kts
25-Sep-19 11:29 35.442239 -116.035152 47 38999ft 459kts
25-Sep-19 11:30 35.528116 -115.919771 48 39010ft 459kts
25-Sep-19 11:31 35.614194 -115.803561 48 39015ft 459kts
25-Sep-19 11:32 35.699293 -115.686978 48 39021ft 459kts
25-Sep-19 11:33 35.784271 -115.569571 48 39029ft 459kts
25-Sep-19 11:34 35.869113 -115.452186 48 39039ft 459kts
25-Sep-19 11:35 35.954330 -115.334897 49 39044ft 459kts
25-Sep-19 11:36 36.039259 -115.216337 49 39024ft 461kts
25-Sep-19 11:37 36.105810 -115.085894 71 38998ft 462kts
25-Sep-19 11:38 36.148775 -114.935934 69 38981ft 462kts
25-Sep-19 11:39 36.194341 -114.787384 69 38983ft 462kts
25-Sep-19 11:40 36.239521 -114.638900 69 39005ft 461kts
25-Sep-19 11:41 36.284486 -114.490106 70 39023ft 461kts
25-Sep-19 11:42 36.329840 -114.341357 69 39029ft 460kts
25-Sep-19 11:43 36.374765 -114.192844 70 39033ft 460kts
25-Sep-19 11:44 36.419364 -114.044006 70 39037ft 460kts
25-Sep-19 11:45 36.463720 -113.895135 70 39056ft 460kts
25-Sep-19 11:46 36.508004 -113.745710 70 39065ft 461kts
25-Sep-19 11:47 36.552480 -113.595972 71 39077ft 463kts
25-Sep-19 11:48 36.596486 -113.445030 71 39118ft 464kts
25-Sep-19 11:49 36.640523 -113.293577 71 39129ft 465kts
25-Sep-19 11:50 36.684238 -113.141784 71 39144ft 467kts
25-Sep-19 11:52 36.728013 -112.988902 71 39163ft 469kts
25-Sep-19 11:53 36.772167 -112.836148 71 39175ft 469kts
25-Sep-19 11:54 36.816348 -112.682401 72 39178ft 470kts
25-Sep-19 11:55 36.859814 -112.527983 72 39179ft 471kts
25-Sep-19 11:56 36.903091 -112.373852 72 39186ft 471kts
25-Sep-19 11:57 36.946361 -112.218768 72 39187ft 471kts
25-Sep-19 11:58 36.989243 -112.063821 72 39167ft 471kts
25-Sep-19 11:59 37.032255 -111.908514 72 39182ft 474kts
25-Sep-19 12:00 37.075533 -111.752830 72 39171ft 474kts
25-Sep-19 12:01 37.118515 -111.596110 72 39160ft 475kts
25-Sep-19 12:02 37.161370 -111.439468 72 39157ft 475kts
25-Sep-19 12:03 37.203539 -111.282703 72 39160ft 475kts
25-Sep-19 12:04 37.245652 -111.125534 73 39167ft 476kts
25-Sep-19 12:05 37.287523 -110.967447 73 39172ft 477kts
25-Sep-19 12:06 37.329224 -110.808995 73 39177ft 477kts
25-Sep-19 12:07 37.371549 -110.650989 73 39181ft 478kts
25-Sep-19 12:08 37.413309 -110.492031 73 39194ft 478kts
25-Sep-19 12:08 37.447852 -110.359519 73 39206ft 478kts
25-Sep-19 12:10 37.496032 -110.173495 73 39225ft 479kts
25-Sep-19 12:11 37.537105 -110.013824 73 39242ft 478kts
25-Sep-19 12:11 37.571160 -109.880647 73 39256ft 480kts
25-Sep-19 12:12 37.611858 -109.720582 73 39269ft 480kts
25-Sep-19 12:14 37.659214 -109.533016 73 39277ft 481kts
25-Sep-19 12:14 37.692983 -109.398393 73 39275ft 482kts
25-Sep-19 12:15 37.733613 -109.236947 73 39264ft 483kts
25-Sep-19 12:16 37.773652 -109.074438 74 39246ft 484kts
25-Sep-19 12:17 37.817331 -108.913683 64 39232ft 487kts
25-Sep-19 12:18 37.887753 -108.766780 58 39221ft 489kts
25-Sep-19 12:19 37.959836 -108.620740 59 39215ft 488kts
25-Sep-19 12:20 38.031334 -108.474315 58 39236ft 488kts
25-Sep-19 12:21 38.102503 -108.327413 59 39246ft 489kts
25-Sep-19 12:22 38.173371 -108.180073 59 39267ft 489kts
25-Sep-19 12:23 38.243946 -108.032642 59 39268ft 489kts
25-Sep-19 12:24 38.314772 -107.884774 59 39236ft 489kts
25-Sep-19 12:25 38.385089 -107.736148 59 39234ft 490kts
25-Sep-19 12:26 38.455400 -107.586751 59 39247ft 491kts
25-Sep-19 12:27 38.523178 -107.435418 60 39246ft 493kts
25-Sep-19 12:28 38.591143 -107.282795 60 39230ft 494kts
25-Sep-19 12:29 38.659679 -107.129739 60 39269ft 496kts
25-Sep-19 12:30 38.728056 -106.976571 60 39181ft 494kts
25-Sep-19 12:31 38.793265 -106.828493 60 37771ft 497kts
25-Sep-19 12:32 38.861079 -106.673609 60 36240ft 496kts
25-Sep-19 12:33 38.931120 -106.522823 58 33947ft 488kts
25-Sep-19 12:34 39.000174 -106.372792 58 31127ft 485kts
25-Sep-19 12:35 39.067255 -106.225458 58 28757ft 471kts
25-Sep-19 12:36 39.132082 -106.080902 59 26247ft 461kts
25-Sep-19 12:37 39.194997 -105.939265 59 23874ft 449kts
25-Sep-19 12:38 39.255698 -105.800713 59 21553ft 439kts
25-Sep-19 12:39 39.314458 -105.666176 58 19921ft 414kts
25-Sep-19 12:40 39.367164 -105.545948 58 19081ft 356kts
25-Sep-19 12:41 39.398611 -105.426442 84 17947ft 356kts
25-Sep-19 12:42 39.402736 -105.306692 86 16418ft 344kts
25-Sep-19 12:43 39.419797 -105.190739 54 15521ft 333kts
25-Sep-19 12:44 39.481658 -105.112329 38 15198ft 290kts
25-Sep-19 12:45 39.540225 -105.045131 39 13798ft 276kts
25-Sep-19 12:46 39.597303 -104.979395 39 12663ft 273kts
25-Sep-19 12:47 39.653956 -104.914447 39 11740ft 269kts
25-Sep-19 12:48 39.709055 -104.850739 40 11025ft 262kts
25-Sep-19 12:49 39.769213 -104.804145 359 11015ft 255kts
25-Sep-19 12:50 39.840365 -104.804963 356 10544ft 253kts
25-Sep-19 12:51 39.909133 -104.807227 356 9884ft 231kts
25-Sep-19 12:52 39.971370 -104.810585 357 8607ft 220kts
25-Sep-19 12:53 40.014795 -104.775134 91 7115ft 215kts
25-Sep-19 12:54 39.973404 -104.723137 142 7007ft 195kts
25-Sep-19 12:55 39.932268 -104.688586 153 6174ft 161kts
25-Sep-19 12:56 39.889675 -104.686849 175 5445ft 104kts
25-Sep-19 12:57 39.881988 -104.686951 181 5444ft 35kts
25-Sep-19 12:58 39.876635 -104.685856 150 5444ft 0kts
25-Sep-19 12:59 39.876630 -104.685852 150 5444ft 0kts
25-Sep-19 13:00 39.873259 -104.684990 179 5444ft 33kts
25-Sep-19 13:01 39.864376 -104.685057 180 5444ft 30kts
25-Sep-19 13:02 39.857008 -104.684886 125 5444ft 11kts
25-Sep-19 13:03 39.856771 -104.679882 69 5444ft 11kts
25-Sep-19 13:04 39.857398 -104.674651 92 5444ft 12kts
25-Sep-19 13:05 39.857953 -104.672085 2 5444ft 2kts
25-Sep-19 13:06 39.858081 -104.672082 0 5444ft 0kts
25-Sep-19 13:07 39.858081 -104.672082 0 5444ft 0kts
25-Sep-19 13:08 39.858081 -104.672082 0 5444ft 0kts
25-Sep-19 13:09 39.858081 -104.672082 0 5444ft 0kts
25-Sep-19 13:10 39.858081 -104.672082 0 5444ft 0kts
25-Sep-19 13:11 39.858081 -104.672082 0 5444ft 0kts

Navigation Log

Ident Type
Flight plan parsing failed, navigation log unavailable